Time;durP1;ratioP1;P1;durP2;ratioP2;P2;SDS_P1;SDS_P2;PMS_P1;PMS_P2;Temp;Humidity;BMP_temperature;BMP_pressure;BME280_temperature;BME280_humidity;BME280_pressure;Samples;Min_cycle;Max_cycle;Signal;HPM_P1;HPM_P2
2022/12/20 00:00:06;;;;;;;9.10;6.20;;;;;;;;;;5014305;28;20413;-82
2022/12/20 00:02:32;;;;;;;10.90;5.73;;;;;;;;;;5029173;28;20900;-82
2022/12/20 00:04:58;;;;;;;8.63;5.30;;;;;;;;;;5013951;28;20432;-81
2022/12/20 00:07:24;;;;;;;8.17;4.80;;;;;;;;;;5013885;28;20412;-82
2022/12/20 00:09:50;;;;;;;7.10;4.43;;;;;;;;;;5014206;28;20455;-82
2022/12/20 00:12:16;;;;;;;7.80;4.40;;;;;;;;;;5029284;28;20179;-82
2022/12/20 00:14:42;;;;;;;12.00;5.47;;;;;;;;;;5012374;28;20487;-82
2022/12/20 00:17:08;;;;;;;7.50;4.40;;;;;;;;;;5013821;28;20958;-82
2022/12/20 00:19:34;;;;;;;7.07;5.43;;;;;;;;;;5013138;28;20423;-82
2022/12/20 00:21:59;;;;;;;6.87;4.43;;;;;;;;;;5013235;28;20426;-82
2022/12/20 00:24:25;;;;;;;7.83;5.57;;;;;;;;;;5013944;28;20927;-82
2022/12/20 00:26:51;;;;;;;11.10;4.93;;;;;;;;;;5013894;28;20428;-82
2022/12/20 00:29:17;;;;;;;9.20;5.33;;;;;;;;;;5029160;28;20439;-82
2022/12/20 00:31:43;;;;;;;7.17;3.17;;;;;;;;;;5028764;28;20483;-82
2022/12/20 00:34:09;;;;;;;9.00;5.53;;;;;;;;;;5013581;28;20973;-81
2022/12/20 00:36:35;;;;;;;9.17;6.07;;;;;;;;;;5013305;28;20433;-84
2022/12/20 00:39:01;;;;;;;8.80;4.27;;;;;;;;;;5028817;28;20419;-82
2022/12/20 00:41:28;;;;;;;8.73;4.10;;;;;;;;;;5028564;28;20424;-83
2022/12/20 00:43:55;;;;;;;9.83;4.93;;;;;;;;;;5028065;28;20816;-82
2022/12/20 00:46:22;;;;;;;6.13;3.73;;;;;;;;;;5013298;28;20415;-81
2022/12/20 00:48:48;;;;;;;9.63;5.33;;;;;;;;;;5012710;28;20428;-82
2022/12/20 00:51:18;;;;;;;7.93;4.80;;;;;;;;;;5028126;28;20423;-82
2022/12/20 00:53:44;;;;;;;9.07;3.83;;;;;;;;;;5028504;28;20478;-82
2022/12/20 00:56:10;;;;;;;6.47;4.23;;;;;;;;;;5012780;28;20417;-83
2022/12/20 00:58:37;;;;;;;8.50;5.47;;;;;;;;;;5028222;28;20947;-82
2022/12/20 01:01:04;;;;;;;9.00;4.00;;;;;;;;;;5028324;28;20435;-82
2022/12/20 01:03:30;;;;;;;6.43;4.43;;;;;;;;;;5013157;28;20452;-82
2022/12/20 01:05:58;;;;;;;7.83;3.80;;;;;;;;;;5012943;28;20417;-82
2022/12/20 01:08:25;;;;;;;9.90;4.70;;;;;;;;;;5028290;28;20416;-82
2022/12/20 01:11:03;;;;;;;7.90;4.60;;;;;;;;;;5012902;28;20436;-81
2022/12/20 01:13:30;;;;;;;11.23;4.77;;;;;;;;;;5012275;28;20427;-84
2022/12/20 01:15:56;;;;;;;10.53;4.87;;;;;;;;;;5012824;28;20470;-81
2022/12/20 01:18:22;;;;;;;6.13;3.73;;;;;;;;;;5027545;28;20439;-81
2022/12/20 01:20:48;;;;;;;7.10;3.70;;;;;;;;;;5027648;28;20435;-83
2022/12/20 01:23:14;;;;;;;6.87;3.80;;;;;;;;;;5012707;28;20486;-82
2022/12/20 01:25:40;;;;;;;7.50;4.77;;;;;;;;;;5027876;28;20540;-82
2022/12/20 01:28:06;;;;;;;6.67;3.60;;;;;;;;;;5027963;28;20433;-82
2022/12/20 01:30:32;;;;;;;8.33;5.00;;;;;;;;;;5027983;28;20990;-82
2022/12/20 01:32:57;;;;;;;6.20;3.57;;;;;;;;;;5012760;28;20420;-83
2022/12/20 01:35:23;;;;;;;6.63;3.83;;;;;;;;;;5012019;28;20473;-82
2022/12/20 01:37:49;;;;;;;5.70;4.30;;;;;;;;;;5012621;28;20885;-82
2022/12/20 01:40:15;;;;;;;6.40;3.87;;;;;;;;;;5028089;28;20177;-82
2022/12/20 01:42:41;;;;;;;10.47;4.30;;;;;;;;;;5012929;28;20601;-84
2022/12/20 01:45:08;;;;;;;8.70;4.70;;;;;;;;;;5028090;28;20421;-84
2022/12/20 01:47:35;;;;;;;10.07;4.97;;;;;;;;;;5013009;28;20492;-84
2022/12/20 01:50:02;;;;;;;6.67;4.07;;;;;;;;;;5012557;28;20427;-85
2022/12/20 01:52:36;;;;;;;7.00;4.00;;;;;;;;;;5028004;28;20420;-83
2022/12/20 01:55:05;;;;;;;5.60;4.00;;;;;;;;;;5028072;28;20845;-83
2022/12/20 01:57:34;;;;;;;6.23;4.00;;;;;;;;;;5012879;28;20901;-83
2022/12/20 02:00:00;;;;;;;8.17;4.20;;;;;;;;;;5028001;28;20434;-83
2022/12/20 02:02:26;;;;;;;5.93;3.70;;;;;;;;;;5027968;28;20492;-83
2022/12/20 02:04:52;;;;;;;9.60;6.00;;;;;;;;;;5027564;28;20433;-83
2022/12/20 02:07:21;;;;;;;7.70;4.07;;;;;;;;;;5012790;28;20409;-83
2022/12/20 02:09:47;;;;;;;9.20;3.97;;;;;;;;;;5031279;28;20433;-83
2022/12/20 02:12:36;;;;;;;7.27;4.37;;;;;;;;;;5016574;28;20412;-82
2022/12/20 02:15:28;;;;;;;7.10;3.10;;;;;;;;;;5013238;28;20556;-84
2022/12/20 02:18:06;;;;;;;5.70;4.20;;;;;;;;;;5016595;28;20515;-84
2022/12/20 02:20:51;;;;;;;7.90;3.27;;;;;;;;;;5031292;28;20429;-84
2022/12/20 02:23:35;;;;;;;8.97;4.47;;;;;;;;;;5016276;28;20411;-85
2022/12/20 02:26:09;;;;;;;8.27;5.17;;;;;;;;;;5031681;28;20417;-85
2022/12/20 02:28:50;;;;;;;6.70;3.53;;;;;;;;;;5016333;28;20427;-85
2022/12/20 02:31:18;;;;;;;5.57;3.60;;;;;;;;;;5016090;28;20415;-84
2022/12/20 02:33:47;;;;;;;5.97;3.47;;;;;;;;;;5016279;28;20460;-85
2022/12/20 02:36:14;;;;;;;5.30;3.60;;;;;;;;;;5031186;28;20416;-83
2022/12/20 02:38:40;;;;;;;4.20;2.77;;;;;;;;;;5016259;28;20412;-85
2022/12/20 02:41:11;;;;;;;8.00;3.53;;;;;;;;;;5016169;28;20769;-85
2022/12/20 02:46:25;;;;;;;6.47;3.93;;;;;;;;;;5016545;28;20450;-85
2022/12/20 02:48:52;;;;;;;7.00;4.37;;;;;;;;;;5016106;28;20771;-85
2022/12/20 02:51:19;;;;;;;6.27;3.37;;;;;;;;;;5015748;28;20412;-83
2022/12/20 02:53:45;;;;;;;6.60;3.63;;;;;;;;;;5031280;28;20584;-85
2022/12/20 02:56:19;;;;;;;6.03;3.30;;;;;;;;;;5031206;28;20999;-84
2022/12/20 02:58:53;;;;;;;9.70;3.40;;;;;;;;;;5031192;28;20409;-84
2022/12/20 03:01:34;;;;;;;4.87;3.40;;;;;;;;;;5031117;28;20938;-84
2022/12/20 03:04:00;;;;;;;5.70;3.00;;;;;;;;;;5031076;28;20413;-84
2022/12/20 03:06:26;;;;;;;7.53;4.03;;;;;;;;;;5030685;28;20413;-84
2022/12/20 03:08:52;;;;;;;7.87;4.00;;;;;;;;;;5030923;28;20415;-83
2022/12/20 03:11:19;;;;;;;7.10;3.40;;;;;;;;;;5015659;28;20430;-84
2022/12/20 03:13:45;;;;;;;4.43;3.20;;;;;;;;;;5030604;28;20789;-84
2022/12/20 03:16:11;;;;;;;10.20;4.37;;;;;;;;;;5030816;28;20422;-83
2022/12/20 03:18:37;;;;;;;7.60;4.33;;;;;;;;;;5015111;28;20411;-82
2022/12/20 03:21:03;;;;;;;8.70;3.53;;;;;;;;;;5015062;28;20441;-82
2022/12/20 03:23:29;;;;;;;6.33;3.70;;;;;;;;;;5015531;28;20430;-82
2022/12/20 03:25:55;;;;;;;6.03;3.50;;;;;;;;;;5015345;28;20511;-82
2022/12/20 03:28:21;;;;;;;8.83;2.97;;;;;;;;;;5015381;28;20846;-82
2022/12/20 03:30:47;;;;;;;5.80;3.20;;;;;;;;;;5015335;28;20417;-82
2022/12/20 03:33:13;;;;;;;6.47;4.00;;;;;;;;;;5015250;28;20482;-82
2022/12/20 03:35:39;;;;;;;6.40;4.30;;;;;;;;;;5014734;28;20480;-82
2022/12/20 03:38:05;;;;;;;5.73;3.40;;;;;;;;;;5015081;28;20747;-83
2022/12/20 03:40:31;;;;;;;7.90;4.00;;;;;;;;;;5015166;28;20424;-83
2022/12/20 03:42:57;;;;;;;8.03;3.10;;;;;;;;;;5015075;28;20413;-82
2022/12/20 03:45:23;;;;;;;7.37;4.40;;;;;;;;;;5015049;28;20426;-82
2022/12/20 03:47:49;;;;;;;6.10;3.27;;;;;;;;;;5014936;28;20409;-82
2022/12/20 03:50:15;;;;;;;6.07;3.23;;;;;;;;;;5014641;28;20818;-83
2022/12/20 03:52:41;;;;;;;9.70;4.70;;;;;;;;;;5014793;28;20417;-82
2022/12/20 03:55:08;;;;;;;6.60;3.57;;;;;;;;;;5014787;28;20474;-82
2022/12/20 03:57:34;;;;;;;6.10;3.13;;;;;;;;;;5014820;28;20258;-83
2022/12/20 04:00:00;;;;;;;7.60;3.80;;;;;;;;;;5014823;28;20446;-83
2022/12/20 04:02:26;;;;;;;6.57;4.03;;;;;;;;;;5014795;28;20445;-84
2022/12/20 04:04:52;;;;;;;6.33;3.20;;;;;;;;;;5014447;28;20478;-83
2022/12/20 04:07:17;;;;;;;6.53;3.40;;;;;;;;;;5014564;28;20424;-84
2022/12/20 04:09:43;;;;;;;6.60;3.60;;;;;;;;;;5014591;28;20418;-85
2022/12/20 04:12:10;;;;;;;10.47;4.97;;;;;;;;;;5014599;28;20402;-84
2022/12/20 04:14:36;;;;;;;4.70;2.80;;;;;;;;;;5014209;28;20838;-85
2022/12/20 04:17:02;;;;;;;8.37;3.73;;;;;;;;;;5014454;28;20885;-85
2022/12/20 04:19:28;;;;;;;7.37;5.33;;;;;;;;;;5014021;28;20413;-84
2022/12/20 04:21:55;;;;;;;7.20;4.57;;;;;;;;;;5029513;28;20963;-84
2022/12/20 04:24:21;;;;;;;6.67;4.13;;;;;;;;;;5014283;28;20412;-84
2022/12/20 04:26:48;;;;;;;7.93;3.87;;;;;;;;;;5014213;28;20451;-85
2022/12/20 04:29:14;;;;;;;5.67;4.90;;;;;;;;;;5014239;28;20406;-84
2022/12/20 04:31:41;;;;;;;5.80;3.23;;;;;;;;;;5013396;28;20409;-85
2022/12/20 04:34:06;;;;;;;6.37;4.00;;;;;;;;;;5014073;28;20468;-84
2022/12/20 04:36:32;;;;;;;8.27;4.10;;;;;;;;;;5013788;28;20509;-84
2022/12/20 04:38:58;;;;;;;12.20;3.77;;;;;;;;;;5014027;28;20556;-85
2022/12/20 04:41:25;;;;;;;8.20;4.13;;;;;;;;;;5014104;28;20445;-85
2022/12/20 04:43:52;;;;;;;8.23;5.53;;;;;;;;;;5014013;28;20408;-85
2022/12/20 04:46:18;;;;;;;8.70;4.87;;;;;;;;;;5014048;28;20405;-84
2022/12/20 04:48:44;;;;;;;10.67;4.77;;;;;;;;;;5029061;28;20509;-85
2022/12/20 04:51:10;;;;;;;6.13;3.90;;;;;;;;;;5013510;28;20412;-85
2022/12/20 04:53:48;;;;;;;7.30;4.07;;;;;;;;;;5013762;28;20406;-85
2022/12/20 04:56:19;;;;;;;7.30;4.70;;;;;;;;;;5029080;28;20431;-85
2022/12/20 04:58:46;;;;;;;9.03;4.70;;;;;;;;;;5013716;28;20449;-83
2022/12/20 05:01:12;;;;;;;11.30;4.57;;;;;;;;;;5013717;28;20436;-83
2022/12/20 05:03:38;;;;;;;7.33;4.03;;;;;;;;;;5013748;28;20416;-82
2022/12/20 05:06:05;;;;;;;8.80;4.70;;;;;;;;;;5013205;28;20426;-84
2022/12/20 05:08:31;;;;;;;6.40;4.43;;;;;;;;;;5013560;28;20432;-83
2022/12/20 05:10:57;;;;;;;10.03;4.80;;;;;;;;;;5013451;28;20426;-83
2022/12/20 05:13:23;;;;;;;10.53;4.60;;;;;;;;;;5013569;28;20423;-83
2022/12/20 05:15:52;;;;;;;8.40;4.10;;;;;;;;;;5028464;28;20490;-83
2022/12/20 05:18:18;;;;;;;9.73;5.33;;;;;;;;;;5013506;28;20566;-84
2022/12/20 05:20:44;;;;;;;9.47;5.90;;;;;;;;;;5013130;28;20443;-84
2022/12/20 05:28:40;;;;;;;10.40;5.70;;;;;;;;;;5013236;28;20453;-83
2022/12/20 05:31:06;;;;;;;9.90;5.87;;;;;;;;;;5013281;28;20413;-82
2022/12/20 05:33:32;;;;;;;9.33;6.20;;;;;;;;;;5013289;28;20402;-82
2022/12/20 05:35:58;;;;;;;12.30;6.50;;;;;;;;;;5012871;28;20500;-82
2022/12/20 05:38:24;;;;;;;9.70;5.50;;;;;;;;;;5013239;28;20447;-83
2022/12/20 05:40:50;;;;;;;13.27;6.70;;;;;;;;;;5013266;28;20917;-83
2022/12/20 05:43:16;;;;;;;12.33;6.27;;;;;;;;;;5015900;28;20448;-84
2022/12/20 05:45:49;;;;;;;8.50;5.27;;;;;;;;;;5032436;28;20462;-83
2022/12/20 05:48:16;;;;;;;11.23;6.57;;;;;;;;;;5017282;28;20446;-84
2022/12/20 05:50:43;;;;;;;8.93;6.63;;;;;;;;;;5016842;28;20915;-84
2022/12/20 05:53:09;;;;;;;10.33;6.47;;;;;;;;;;5017087;28;20918;-84
2022/12/20 05:55:35;;;;;;;15.23;5.87;;;;;;;;;;5017036;28;20479;-85
2022/12/20 05:58:01;;;;;;;9.43;6.80;;;;;;;;;;5032199;28;20415;-84
2022/12/20 06:00:27;;;;;;;13.97;7.60;;;;;;;;;;5032244;28;20435;-84
2022/12/20 06:02:53;;;;;;;11.03;6.50;;;;;;;;;;5016991;28;20435;-84
2022/12/20 06:05:19;;;;;;;11.40;6.77;;;;;;;;;;5031730;28;20429;-84
2022/12/20 06:07:45;;;;;;;7.60;5.40;;;;;;;;;;5016677;28;20417;-84
2022/12/20 06:10:11;;;;;;;11.03;6.13;;;;;;;;;;5031967;28;20794;-84
2022/12/20 06:12:37;;;;;;;8.90;4.37;;;;;;;;;;5016673;28;20402;-84
2022/12/20 06:15:03;;;;;;;9.40;5.23;;;;;;;;;;5016372;28;21005;-84
2022/12/20 06:17:29;;;;;;;8.37;5.00;;;;;;;;;;5031889;28;20924;-84
2022/12/20 06:19:55;;;;;;;9.27;3.70;;;;;;;;;;5031608;28;20503;-84
2022/12/20 06:22:21;;;;;;;12.03;4.00;;;;;;;;;;5016597;28;20482;-84
2022/12/20 06:24:47;;;;;;;6.97;3.23;;;;;;;;;;5016587;28;20777;-84
2022/12/20 06:27:13;;;;;;;13.43;4.67;;;;;;;;;;5016297;28;20421;-84
2022/12/20 06:29:39;;;;;;;6.30;3.33;;;;;;;;;;5016365;28;20921;-84
2022/12/20 06:32:05;;;;;;;6.50;4.77;;;;;;;;;;5031649;28;20419;-83
2022/12/20 06:34:32;;;;;;;10.80;3.80;;;;;;;;;;5030971;28;20477;-83
2022/12/20 06:36:58;;;;;;;5.30;4.50;;;;;;;;;;5016338;28;20421;-82
2022/12/20 06:39:24;;;;;;;10.00;5.13;;;;;;;;;;5016287;28;20420;-82
2022/12/20 06:41:50;;;;;;;6.97;3.40;;;;;;;;;;5016221;28;20406;-85
2022/12/20 06:44:16;;;;;;;7.17;3.40;;;;;;;;;;5016181;28;20754;-84
2022/12/20 06:46:41;;;;;;;7.90;4.23;;;;;;;;;;5031421;28;20410;-83
2022/12/20 06:49:07;;;;;;;6.80;4.10;;;;;;;;;;5015591;28;20501;-84
2022/12/20 06:51:33;;;;;;;6.57;4.20;;;;;;;;;;5016081;28;20505;-82
2022/12/20 06:53:59;;;;;;;9.63;5.27;;;;;;;;;;5014809;28;20463;-84
2022/12/20 06:56:25;;;;;;;10.30;5.07;;;;;;;;;;5015824;28;20495;-84
2022/12/20 06:58:51;;;;;;;8.03;6.00;;;;;;;;;;5016018;28;20410;-85
2022/12/20 07:01:18;;;;;;;7.27;3.27;;;;;;;;;;5031180;28;20423;-82
2022/12/20 07:03:44;;;;;;;8.60;4.17;;;;;;;;;;5015774;28;20412;-83
2022/12/20 07:06:10;;;;;;;9.47;4.90;;;;;;;;;;5015454;28;20477;-84
2022/12/20 07:08:36;;;;;;;9.40;4.20;;;;;;;;;;5015677;28;20917;-84
2022/12/20 07:11:08;;;;;;;9.47;5.00;;;;;;;;;;5030943;28;20923;-84
2022/12/20 07:13:34;;;;;;;9.00;6.13;;;;;;;;;;5015628;28;20498;-85
2022/12/20 07:16:01;;;;;;;7.90;5.00;;;;;;;;;;5015266;28;20484;-84
2022/12/20 07:18:27;;;;;;;9.30;4.73;;;;;;;;;;5030795;28;20421;-84
2022/12/20 07:20:53;;;;;;;9.10;4.40;;;;;;;;;;5030393;28;20422;-84
2022/12/20 07:23:19;;;;;;;7.53;5.43;;;;;;;;;;5015393;28;20512;-84
2022/12/20 07:25:55;;;;;;;8.20;4.40;;;;;;;;;;5015349;28;20434;-84
2022/12/20 07:28:22;;;;;;;9.30;5.50;;;;;;;;;;5015385;28;20417;-84
2022/12/20 07:30:48;;;;;;;9.23;5.20;;;;;;;;;;5015241;28;20420;-83
2022/12/20 07:33:17;;;;;;;9.40;5.27;;;;;;;;;;5015193;28;20417;-83
2022/12/20 07:35:44;;;;;;;8.13;5.20;;;;;;;;;;5014776;28;20540;-84
2022/12/20 07:38:10;;;;;;;9.20;5.40;;;;;;;;;;5030251;28;20409;-84
2022/12/20 07:40:39;;;;;;;7.67;4.10;;;;;;;;;;5015214;28;20429;-83
2022/12/20 07:43:05;;;;;;;7.07;4.60;;;;;;;;;;5015141;28;20853;-82
2022/12/20 07:45:31;;;;;;;11.83;5.50;;;;;;;;;;5015121;28;20429;-81
2022/12/20 07:47:56;;;;;;;8.20;5.10;;;;;;;;;;5015000;28;20926;-83
2022/12/20 07:50:23;;;;;;;9.93;5.83;;;;;;;;;;5014562;28;20456;-82
2022/12/20 07:52:49;;;;;;;10.40;5.80;;;;;;;;;;5014635;28;20809;-83
2022/12/20 07:55:19;;;;;;;9.97;5.53;;;;;;;;;;5014777;28;20478;-84
2022/12/20 07:57:56;;;;;;;10.50;6.03;;;;;;;;;;5029723;28;20413;-84
2022/12/20 08:00:22;;;;;;;9.23;5.40;;;;;;;;;;5014736;28;20452;-83
2022/12/20 08:02:51;;;;;;;8.70;5.53;;;;;;;;;;5030037;28;20508;-84
2022/12/20 08:05:17;;;;;;;9.60;5.67;;;;;;;;;;5014520;28;20466;-84
2022/12/20 08:07:45;;;;;;;10.40;5.30;;;;;;;;;;5014883;28;20524;-83
2022/12/20 08:10:13;;;;;;;7.07;5.33;;;;;;;;;;5014730;28;20410;-84
2022/12/20 08:12:40;;;;;;;8.80;5.23;;;;;;;;;;5030307;28;20426;-84
2022/12/20 08:15:07;;;;;;;11.80;6.53;;;;;;;;;;5014596;28;20490;-85
2022/12/20 08:17:33;;;;;;;12.17;6.80;;;;;;;;;;5014761;28;20415;-84
2022/12/20 08:19:59;;;;;;;12.60;6.97;;;;;;;;;;5014499;28;20429;-84
2022/12/20 08:22:25;;;;;;;12.93;7.07;;;;;;;;;;5029952;28;20771;-82
2022/12/20 08:24:51;;;;;;;8.57;4.93;;;;;;;;;;5014606;28;20444;-83
2022/12/20 08:27:17;;;;;;;10.07;6.07;;;;;;;;;;5030006;28;20422;-85
2022/12/20 08:29:43;;;;;;;10.47;6.10;;;;;;;;;;5029913;28;20425;-85
2022/12/20 08:32:11;;;;;;;7.67;5.00;;;;;;;;;;5014679;28;20781;-84
2022/12/20 08:34:38;;;;;;;11.33;5.73;;;;;;;;;;5029307;28;20480;-82
2022/12/20 08:37:04;;;;;;;8.43;5.30;;;;;;;;;;5014443;28;20418;-84
2022/12/20 08:39:30;;;;;;;9.27;6.33;;;;;;;;;;5014440;28;20920;-84
2022/12/20 08:41:55;;;;;;;13.07;6.30;;;;;;;;;;5014326;28;20405;-83
2022/12/20 08:44:21;;;;;;;9.87;5.43;;;;;;;;;;5029655;28;20418;-84
2022/12/20 08:46:47;;;;;;;10.40;6.20;;;;;;;;;;5029615;28;20422;-85
2022/12/20 08:49:14;;;;;;;11.80;6.43;;;;;;;;;;5013853;28;20414;-84
2022/12/20 08:51:40;;;;;;;9.80;6.23;;;;;;;;;;5013877;28;20999;-84
2022/12/20 08:54:05;;;;;;;8.97;5.60;;;;;;;;;;5013725;28;20454;-84
2022/12/20 08:56:31;;;;;;;11.90;6.37;;;;;;;;;;5013762;28;20490;-83
2022/12/20 08:58:57;;;;;;;10.57;6.20;;;;;;;;;;5014051;28;20413;-84
2022/12/20 09:01:25;;;;;;;10.00;6.90;;;;;;;;;;5013793;28;20414;-85
2022/12/20 09:03:51;;;;;;;10.30;5.70;;;;;;;;;;5013494;28;20410;-83
2022/12/20 09:06:20;;;;;;;10.40;6.47;;;;;;;;;;5028832;28;20416;-84
2022/12/20 09:08:47;;;;;;;9.50;6.50;;;;;;;;;;5028664;28;20927;-82
2022/12/20 09:11:16;;;;;;;9.03;6.37;;;;;;;;;;5013625;28;20899;-83
2022/12/20 09:13:43;;;;;;;9.70;5.67;;;;;;;;;;5013430;28;20925;-82
2022/12/20 09:16:09;;;;;;;8.87;5.07;;;;;;;;;;5027069;28;20533;-83
2022/12/20 09:18:35;;;;;;;12.30;6.47;;;;;;;;;;5012051;28;20782;-82
2022/12/20 09:21:02;;;;;;;8.70;5.00;;;;;;;;;;5012345;28;20483;-82
2022/12/20 09:23:29;;;;;;;6.90;5.37;;;;;;;;;;5012986;28;20511;-82
2022/12/20 09:25:55;;;;;;;8.90;4.90;;;;;;;;;;5012993;28;20412;-82
2022/12/20 09:28:21;;;;;;;11.60;6.50;;;;;;;;;;5012918;28;20422;-83
2022/12/20 09:30:47;;;;;;;12.53;6.50;;;;;;;;;;5013013;28;20414;-81
2022/12/20 09:33:13;;;;;;;7.93;4.47;;;;;;;;;;5012866;28;20477;-82
2022/12/20 09:35:46;;;;;;;10.30;5.77;;;;;;;;;;5027628;28;20511;-82
2022/12/20 09:38:12;;;;;;;8.37;5.20;;;;;;;;;;5028013;28;20415;-82
2022/12/20 09:40:39;;;;;;;8.80;4.80;;;;;;;;;;5028039;28;20514;-82
2022/12/20 09:43:08;;;;;;;6.80;4.10;;;;;;;;;;5012757;28;20465;-81
2022/12/20 09:45:36;;;;;;;10.30;5.70;;;;;;;;;;5027248;28;20476;-82
2022/12/20 09:48:04;;;;;;;8.00;4.03;;;;;;;;;;5012770;28;20419;-80
2022/12/20 09:50:56;;;;;;;8.80;4.60;;;;;;;;;;5026920;28;20428;-80
2022/12/20 09:53:41;;;;;;;6.20;3.70;;;;;;;;;;5011690;28;20453;-80
2022/12/20 09:56:16;;;;;;;9.13;4.47;;;;;;;;;;5011934;28;20478;-82
2022/12/20 09:58:41;;;;;;;7.00;4.70;;;;;;;;;;5025773;28;20479;-82
2022/12/20 10:01:14;;;;;;;7.60;3.97;;;;;;;;;;5027844;28;20449;-79
2022/12/20 10:03:40;;;;;;;8.87;5.17;;;;;;;;;;5010292;28;20668;-82
2022/12/20 10:06:27;;;;;;;7.00;5.00;;;;;;;;;;4987163;28;20438;-82
2022/12/20 10:08:58;;;;;;;10.13;4.30;;;;;;;;;;5001567;28;20418;-82
2022/12/20 10:11:34;;;;;;;8.40;4.77;;;;;;;;;;5012536;28;20515;-82
2022/12/20 10:14:04;;;;;;;8.77;4.90;;;;;;;;;;5012351;28;20411;-82
2022/12/20 10:16:41;;;;;;;9.93;4.50;;;;;;;;;;5012519;28;20814;-81
2022/12/20 10:19:25;;;;;;;7.37;4.10;;;;;;;;;;5011212;28;20877;-84
2022/12/20 10:21:54;;;;;;;7.40;4.70;;;;;;;;;;4991246;28;20799;-87
2022/12/20 10:24:24;;;;;;;9.00;4.50;;;;;;;;;;5012154;28;20411;-85
2022/12/20 10:26:51;;;;;;;7.83;4.77;;;;;;;;;;5013393;28;20439;-90
2022/12/20 10:29:17;;;;;;;8.00;4.13;;;;;;;;;;5013162;28;20402;-86
2022/12/20 10:31:43;;;;;;;8.27;4.43;;;;;;;;;;5030135;28;20434;-84
2022/12/20 10:34:09;;;;;;;6.20;3.70;;;;;;;;;;5014125;28;20450;-84
2022/12/20 10:36:37;;;;;;;6.37;4.00;;;;;;;;;;5030222;28;20435;-85
2022/12/20 10:39:05;;;;;;;6.53;3.77;;;;;;;;;;5029440;28;20927;-85
2022/12/20 10:41:50;;;;;;;5.77;2.80;;;;;;;;;;5029938;28;20431;-86
2022/12/20 10:44:26;;;;;;;7.70;4.50;;;;;;;;;;5020554;28;20414;-84
2022/12/20 10:46:56;;;;;;;7.80;4.33;;;;;;;;;;5049769;28;20510;-85
2022/12/20 10:49:29;;;;;;;6.87;3.93;;;;;;;;;;5033652;28;20414;-83
2022/12/20 10:51:57;;;;;;;6.57;3.77;;;;;;;;;;5033598;28;20415;-83
2022/12/20 10:54:34;;;;;;;6.80;3.77;;;;;;;;;;5033856;28;20456;-85
2022/12/20 10:57:04;;;;;;;7.27;3.27;;;;;;;;;;5049474;28;20523;-83
2022/12/20 10:59:33;;;;;;;6.83;4.60;;;;;;;;;;5034391;28;20437;-85
2022/12/20 11:01:59;;;;;;;6.60;2.67;;;;;;;;;;5049667;28;20553;-83
2022/12/20 11:04:27;;;;;;;7.07;3.60;;;;;;;;;;5034033;28;20503;-85
2022/12/20 11:06:54;;;;;;;7.30;4.03;;;;;;;;;;5049575;28;20424;-83
2022/12/20 11:09:26;;;;;;;6.43;3.60;;;;;;;;;;5049715;28;20567;-83
2022/12/20 11:11:58;;;;;;;6.30;3.70;;;;;;;;;;5034331;28;20422;-84
2022/12/20 11:14:25;;;;;;;6.27;4.37;;;;;;;;;;5033952;28;20466;-88
2022/12/20 11:16:52;;;;;;;5.93;2.80;;;;;;;;;;5034778;28;20423;-83
2022/12/20 11:19:18;;;;;;;5.93;4.27;;;;;;;;;;5034343;28;20498;-83
2022/12/20 11:22:02;;;;;;;7.13;4.23;;;;;;;;;;5034360;28;20503;-83
2022/12/20 11:24:34;;;;;;;5.93;3.40;;;;;;;;;;5034548;28;20420;-84
2022/12/20 11:27:11;;;;;;;7.30;3.60;;;;;;;;;;5034372;28;20437;-84
2022/12/20 11:29:56;;;;;;;5.20;3.80;;;;;;;;;;5034224;28;20446;-84
2022/12/20 11:32:28;;;;;;;8.00;4.23;;;;;;;;;;5033988;28;20420;-84
2022/12/20 11:35:33;;;;;;;9.60;3.43;;;;;;;;;;5049941;28;20484;-85
2022/12/20 11:37:59;;;;;;;7.40;4.63;;;;;;;;;;4974797;28;20460;-87
2022/12/20 11:40:32;;;;;;;6.70;3.97;;;;;;;;;;4972751;28;20421;-84
2022/12/20 11:42:58;;;;;;;5.20;3.40;;;;;;;;;;4952312;28;20435;-83
2022/12/20 11:45:30;;;;;;;6.13;3.93;;;;;;;;;;5015501;28;20418;-90
2022/12/20 11:48:14;;;;;;;5.50;2.93;;;;;;;;;;5030468;28;20440;-85
2022/12/20 11:50:56;;;;;;;7.77;4.27;;;;;;;;;;5014923;28;20420;-86
2022/12/20 11:53:32;;;;;;;6.20;3.70;;;;;;;;;;5015675;28;20840;-85
2022/12/20 11:56:01;;;;;;;5.10;4.00;;;;;;;;;;5015827;28;20535;-84
2022/12/20 11:58:32;;;;;;;5.60;3.10;;;;;;;;;;5028825;28;20501;-85
2022/12/20 12:01:03;;;;;;;5.10;3.20;;;;;;;;;;5024926;28;20403;-85
2022/12/20 12:03:34;;;;;;;7.37;3.80;;;;;;;;;;5036467;28;20422;-88
2022/12/20 12:06:04;;;;;;;6.80;3.90;;;;;;;;;;5018184;28;20479;-84
2022/12/20 12:08:48;;;;;;;4.97;2.53;;;;;;;;;;5013139;28;20510;-84
2022/12/20 12:11:20;;;;;;;4.00;2.73;;;;;;;;;;5012958;28;20414;-84
2022/12/20 12:13:47;;;;;;;7.87;3.27;;;;;;;;;;5013088;28;20568;-83
2022/12/20 12:16:19;;;;;;;5.13;2.93;;;;;;;;;;5013415;28;20477;-82
2022/12/20 12:18:45;;;;;;;4.27;2.40;;;;;;;;;;5011496;28;20514;-82
2022/12/20 12:21:34;;;;;;;5.87;2.57;;;;;;;;;;5013149;28;20997;-84
2022/12/20 12:24:13;;;;;;;6.13;2.60;;;;;;;;;;5007561;28;20503;-84
2022/12/20 12:26:39;;;;;;;5.27;3.67;;;;;;;;;;5013080;28;20419;-85
2022/12/20 12:29:09;;;;;;;5.40;2.80;;;;;;;;;;5011864;28;20519;-84
2022/12/20 12:31:53;;;;;;;6.00;2.83;;;;;;;;;;5013375;28;20511;-86
2022/12/20 12:34:33;;;;;;;5.70;2.70;;;;;;;;;;5015695;28;20451;-81
2022/12/20 12:37:14;;;;;;;6.47;2.73;;;;;;;;;;5018325;28;20433;-84
2022/12/20 12:39:48;;;;;;;8.27;3.43;;;;;;;;;;5018528;28;20461;-83
2022/12/20 12:42:41;;;;;;;5.87;3.47;;;;;;;;;;4979303;28;20421;-82
2022/12/20 12:45:15;;;;;;;7.00;3.10;;;;;;;;;;5020490;28;20762;-83
2022/12/20 12:47:48;;;;;;;5.47;2.17;;;;;;;;;;5016830;28;20778;-82
2022/12/20 12:50:34;;;;;;;5.33;2.77;;;;;;;;;;5020004;28;20425;-83
2022/12/20 12:53:14;;;;;;;5.47;2.63;;;;;;;;;;5019217;28;20576;-83
2022/12/20 12:55:41;;;;;;;5.60;3.53;;;;;;;;;;5017448;28;20468;-82
2022/12/20 12:58:14;;;;;;;6.30;3.13;;;;;;;;;;5012593;28;20409;-81
2022/12/20 13:00:51;;;;;;;5.43;3.27;;;;;;;;;;5012344;28;20424;-82
2022/12/20 13:03:36;;;;;;;5.00;2.60;;;;;;;;;;5011037;28;20514;-81
2022/12/20 13:06:21;;;;;;;4.03;2.90;;;;;;;;;;5012553;28;20922;-84
2022/12/20 13:08:48;;;;;;;6.50;4.23;;;;;;;;;;5002406;28;20422;-84
2022/12/20 13:11:28;;;;;;;5.43;2.73;;;;;;;;;;5013866;28;20423;-84
2022/12/20 13:14:27;;;;;;;4.30;2.50;;;;;;;;;;5015093;28;20932;-85
2022/12/20 13:17:02;;;;;;;8.13;2.87;;;;;;;;;;4981582;28;20512;-83
2022/12/20 13:19:29;;;;;;;6.77;2.83;;;;;;;;;;5011126;28;20932;-91
2022/12/20 13:22:21;;;;;;;5.63;2.80;;;;;;;;;;5013785;28;20436;-89
2022/12/20 13:24:59;;;;;;;8.03;3.07;;;;;;;;;;5016100;28;20427;-87
2022/12/20 13:27:29;;;;;;;5.00;2.70;;;;;;;;;;5018041;28;20416;-83
2022/12/20 13:30:17;;;;;;;6.40;2.93;;;;;;;;;;5021891;28;20918;-88
2022/12/20 13:32:46;;;;;;;4.93;3.07;;;;;;;;;;5006520;28;20418;-84
2022/12/20 13:35:41;;;;;;;3.13;1.40;;;;;;;;;;5030899;28;20473;-85
2022/12/20 13:38:30;;;;;;;4.83;2.37;;;;;;;;;;5048227;28;20407;-84
2022/12/20 13:41:00;;;;;;;3.50;1.63;;;;;;;;;;5025953;28;20946;-84
2022/12/20 13:43:29;;;;;;;6.53;2.80;;;;;;;;;;5048983;28;20822;-83
2022/12/20 13:46:12;;;;;;;4.10;2.10;;;;;;;;;;4994836;28;20425;-82
2022/12/20 13:48:38;;;;;;;7.50;3.50;;;;;;;;;;5027844;28;20506;-82
2022/12/20 13:51:04;;;;;;;4.77;1.90;;;;;;;;;;5013101;28;20421;-82
2022/12/20 13:53:31;;;;;;;3.87;2.00;;;;;;;;;;5025890;28;20432;-82
2022/12/20 13:55:59;;;;;;;3.63;1.83;;;;;;;;;;5028399;28;20559;-82
2022/12/20 13:58:35;;;;;;;4.47;2.77;;;;;;;;;;5011492;28;20907;-82
2022/12/20 14:01:12;;;;;;;3.93;2.57;;;;;;;;;;5028554;28;20426;-82
2022/12/20 14:03:48;;;;;;;3.43;2.10;;;;;;;;;;5013836;28;20789;-81
2022/12/20 14:06:22;;;;;;;7.47;2.00;;;;;;;;;;5017072;28;20415;-82
2022/12/20 14:08:49;;;;;;;4.93;3.03;;;;;;;;;;5032188;28;20420;-82
2022/12/20 14:11:27;;;;;;;6.80;2.63;;;;;;;;;;5032224;28;20402;-81
2022/12/20 14:14:11;;;;;;;3.80;1.73;;;;;;;;;;5016616;28;20414;-83
2022/12/20 14:16:58;;;;;;;4.13;3.00;;;;;;;;;;5032096;28;20440;-83
2022/12/20 14:19:45;;;;;;;4.10;1.87;;;;;;;;;;5014558;28;20422;-84
2022/12/20 14:22:24;;;;;;;3.90;2.10;;;;;;;;;;5016697;28;20942;-83
2022/12/20 14:25:27;;;;;;;3.77;2.10;;;;;;;;;;5015795;28;20426;-83
2022/12/20 14:28:18;;;;;;;3.43;1.70;;;;;;;;;;5016587;28;20426;-84
2022/12/20 14:30:47;;;;;;;4.07;2.17;;;;;;;;;;5016913;28;20407;-84
2022/12/20 14:33:34;;;;;;;4.20;3.17;;;;;;;;;;5016282;28;20405;-84
2022/12/20 14:36:15;;;;;;;3.63;1.97;;;;;;;;;;5004917;28;20628;-84
2022/12/20 14:38:42;;;;;;;6.63;3.03;;;;;;;;;;5031619;28;20430;-83
2022/12/20 14:41:27;;;;;;;4.40;2.00;;;;;;;;;;5031671;28;20956;-84
2022/12/20 14:44:00;;;;;;;4.00;2.90;;;;;;;;;;5031620;28;20770;-83
2022/12/20 14:46:29;;;;;;;4.70;2.23;;;;;;;;;;5031520;28;20931;-84
2022/12/20 14:49:09;;;;;;;7.30;2.73;;;;;;;;;;5031143;28;20776;-84
2022/12/20 14:51:35;;;;;;;6.93;3.50;;;;;;;;;;5016180;28;20414;-84
2022/12/20 14:54:02;;;;;;;6.93;3.00;;;;;;;;;;5031507;28;20411;-83
2022/12/20 14:56:28;;;;;;;6.20;2.77;;;;;;;;;;5031311;28;20431;-83
2022/12/20 14:59:15;;;;;;;3.77;1.30;;;;;;;;;;5031320;28;20400;-83
2022/12/20 15:01:42;;;;;;;4.33;1.83;;;;;;;;;;5016040;28;20923;-84
2022/12/20 15:04:24;;;;;;;4.57;1.83;;;;;;;;;;5015456;28;20415;-83